createdAt,value
2024-01-19T00:00:46.326Z,98725.94
2024-01-19T00:04:20.480Z,98730.72
2024-01-19T00:07:23.354Z,98729.13
2024-01-19T00:10:24.896Z,98724.44
2024-01-19T00:13:26.419Z,98727.06
2024-01-19T00:16:27.916Z,98725.03
2024-01-19T00:19:29.484Z,98739.44
2024-01-19T00:22:32.404Z,98723.94
2024-01-19T00:25:33.949Z,98740.88
2024-01-19T00:28:35.512Z,98739.44
2024-01-19T00:31:37.067Z,98747.75
2024-01-19T00:34:38.664Z,98739.88
2024-01-19T00:37:41.500Z,98733.22
2024-01-19T00:40:44.489Z,98732.38
2024-01-19T00:43:46.066Z,98730.19
2024-01-19T00:46:47.604Z,98741.50
2024-01-19T00:49:49.104Z,98750.03
2024-01-19T00:52:51.968Z,98750.31
2024-01-19T00:55:53.463Z,98762.06
2024-01-19T00:58:55.020Z,98752.31
2024-01-19T01:01:56.540Z,98743.75
2024-01-19T01:04:58.366Z,98746.88
2024-01-19T01:08:01.236Z,98739.69
2024-01-19T01:11:02.973Z,98742.31
2024-01-19T01:14:04.495Z,98740.41
2024-01-19T01:17:06.152Z,98732.06
2024-01-19T01:20:08.915Z,98728.28
2024-01-19T01:23:11.772Z,98735.91
2024-01-19T01:26:13.356Z,98732.19
2024-01-19T01:29:14.923Z,98738.41
2024-01-19T01:32:16.498Z,98740.69
2024-01-19T01:35:18.145Z,98744.50
2024-01-19T01:38:21.034Z,98740.59
2024-01-19T01:41:22.663Z,98731.28
2024-01-19T01:44:24.224Z,98743.69
2024-01-19T01:47:25.925Z,98743.59
2024-01-19T01:50:27.607Z,98738.31
2024-01-19T01:53:30.542Z,98745.13
2024-01-19T01:56:32.146Z,98753.28
2024-01-19T01:59:33.846Z,98755.88
2024-01-19T02:02:40.394Z,98729.41
2024-01-19T02:05:42.257Z,98751.22
2024-01-19T02:08:45.399Z,98748.94
2024-01-19T02:11:47.070Z,98735.13
2024-01-19T02:14:48.824Z,98753.38
2024-01-19T02:17:51.657Z,98731.06
2024-01-19T02:20:54.232Z,98726.13
2024-01-19T02:24:05.896Z,98731.97
2024-01-19T02:27:08.953Z,98740.09
2024-01-19T02:30:11.764Z,98734.47
2024-01-19T02:33:13.341Z,98729.47
2024-01-19T02:36:14.932Z,98732.94
2024-01-19T02:39:16.529Z,98748.56
2024-01-19T02:42:19.345Z,98743.94
2024-01-19T02:45:20.888Z,98736.06
2024-01-19T02:48:22.748Z,98723.19
2024-01-19T02:51:56.376Z,98721.16
2024-01-19T02:54:57.882Z,98724.72
2024-01-19T02:58:00.733Z,98718.53
2024-01-19T03:01:02.606Z,98735.72
2024-01-19T03:04:04.380Z,98723.06
2024-01-19T03:07:06.086Z,98729.28
2024-01-19T03:10:08.980Z,98739.44
2024-01-19T03:13:11.880Z,98759.72
2024-01-19T03:16:13.427Z,98732.38
2024-01-19T03:19:15.189Z,98759.59
2024-01-19T03:22:16.896Z,98743.00
2024-01-19T03:25:18.711Z,98745.94
2024-01-19T03:28:21.568Z,98767.19
2024-01-19T03:31:23.131Z,98770.59
2024-01-19T03:34:24.716Z,98774.78
2024-01-19T03:37:26.559Z,98787.22
2024-01-19T03:40:28.097Z,98784.38
2024-01-19T03:43:30.932Z,98778.63
2024-01-19T03:46:32.483Z,98777.19
2024-01-19T03:49:34.061Z,98771.69
2024-01-19T03:52:36.841Z,98783.94
2024-01-19T03:55:38.795Z,98781.09
2024-01-19T03:58:41.794Z,98786.69
2024-01-19T04:01:43.599Z,98782.25
2024-01-19T04:04:45.249Z,98790.72
2024-01-19T04:07:46.920Z,98790.47
2024-01-19T04:10:48.485Z,98802.84
2024-01-19T04:13:51.733Z,98811.56
2024-01-19T04:16:53.376Z,98816.78
2024-01-19T04:19:54.961Z,98827.41
2024-01-19T04:22:56.549Z,98837.78
2024-01-19T04:25:58.077Z,98848.38
2024-01-19T04:29:00.969Z,98849.81
2024-01-19T04:32:02.537Z,98872.06
2024-01-19T04:35:09.252Z,98872.78
2024-01-19T04:38:10.804Z,98871.16
2024-01-19T04:41:12.321Z,98882.03
2024-01-19T04:44:15.196Z,98889.16
2024-01-19T04:47:16.720Z,98904.03
2024-01-19T04:50:18.201Z,98918.38
2024-01-19T04:53:23.105Z,98911.47
2024-01-19T04:56:24.668Z,98917.41
2024-01-19T04:59:27.554Z,98929.59
2024-01-19T05:02:29.099Z,98920.53
2024-01-19T05:05:33.640Z,98935.50
2024-01-19T05:09:07.754Z,98946.28
2024-01-19T05:12:09.397Z,98938.00
2024-01-19T05:15:12.885Z,98962.19
2024-01-19T05:18:14.480Z,98958.72
2024-01-19T05:21:16.061Z,98946.63
2024-01-19T05:24:18.146Z,98937.88
2024-01-19T05:27:19.708Z,98938.19
2024-01-19T05:30:23.662Z,98955.34
2024-01-19T05:33:25.367Z,98957.09
2024-01-19T05:36:26.913Z,98967.00
2024-01-19T05:39:28.452Z,98967.41
2024-01-19T05:42:30.033Z,98972.47
2024-01-19T05:45:32.868Z,98978.66
2024-01-19T05:48:34.500Z,98984.22
2024-01-19T05:51:36.147Z,98985.28
2024-01-19T05:54:37.690Z,98983.38
2024-01-19T05:57:40.797Z,98989.38
2024-01-19T06:00:43.701Z,98984.56
2024-01-19T06:03:45.345Z,98972.09
2024-01-19T06:06:46.979Z,98978.25
2024-01-19T06:09:48.487Z,98976.06
2024-01-19T06:12:50.193Z,98980.50
2024-01-19T06:15:53.277Z,98990.25
2024-01-19T06:18:54.983Z,98991.53
2024-01-19T06:21:59.185Z,99002.13
2024-01-19T06:25:00.888Z,98996.78
2024-01-19T06:28:35.000Z,99007.78
2024-01-19T06:31:44.450Z,99019.22
2024-01-19T06:34:46.034Z,99018.69
2024-01-19T06:37:47.750Z,99026.88
2024-01-19T06:40:49.391Z,99046.50
2024-01-19T06:43:50.862Z,99044.50
2024-01-19T06:50:23.142Z,99053.72
2024-01-19T06:53:24.725Z,99056.88
2024-01-19T06:56:26.340Z,99072.81
2024-01-19T06:59:27.924Z,99070.81
2024-01-19T07:06:00.169Z,99087.78
2024-01-19T07:09:01.991Z,99087.47
2024-01-19T07:12:35.691Z,99111.91
2024-01-19T07:15:37.236Z,99113.69
2024-01-19T07:18:40.265Z,99127.44
2024-01-19T07:25:44.087Z,99136.03
2024-01-19T07:28:45.673Z,99131.81
2024-01-19T07:31:47.196Z,99138.88
2024-01-19T07:35:22.277Z,99146.91
2024-01-19T07:38:24.434Z,99146.84
2024-01-19T07:41:26.175Z,99150.38
2024-01-19T07:44:59.851Z,99161.50
2024-01-19T07:48:34.014Z,99155.91
2024-01-19T07:51:36.929Z,99156.25
2024-01-19T07:54:38.432Z,99170.97
2024-01-19T07:57:40.135Z,99149.84
2024-01-19T08:04:10.699Z,99168.22
2024-01-19T08:07:13.732Z,99181.31
2024-01-19T08:13:44.721Z,99207.13
2024-01-19T08:16:46.256Z,99199.16
2024-01-19T08:19:47.870Z,99216.50
2024-01-19T08:22:50.848Z,99217.31
2024-01-19T08:29:21.697Z,99239.50
2024-01-19T08:35:52.725Z,99237.91
2024-01-19T08:39:28.109Z,99256.72
2024-01-19T08:42:29.616Z,99265.38
2024-01-19T08:45:32.644Z,99255.59
2024-01-19T08:48:34.543Z,99256.34
2024-01-19T08:55:38.710Z,99264.97
2024-01-19T08:58:40.220Z,99268.53
2024-01-19T09:01:41.797Z,99267.19
2024-01-19T09:08:12.320Z,99285.34
2024-01-19T09:15:16.874Z,99275.53
2024-01-19T09:18:18.606Z,99269.75
2024-01-19T09:21:20.169Z,99269.84
2024-01-19T09:24:21.710Z,99298.16
2024-01-19T09:27:24.562Z,99291.56
2024-01-19T09:30:26.112Z,99267.31
2024-01-19T09:36:57.035Z,99288.19
2024-01-19T09:40:02.092Z,99285.84
2024-01-19T09:43:41.543Z,99284.69
2024-01-19T09:46:57.992Z,99291.09
2024-01-19T09:50:03.601Z,99305.22
2024-01-19T09:53:06.301Z,99299.50
2024-01-19T09:56:07.864Z,99305.13
2024-01-19T09:59:10.889Z,99298.13
2024-01-19T10:02:21.413Z,99283.22
2024-01-19T10:05:23.759Z,99276.06
2024-01-19T10:08:26.222Z,99291.78
2024-01-19T10:11:27.767Z,99278.75
2024-01-19T10:14:30.754Z,99282.97
2024-01-19T10:17:33.178Z,99276.88
2024-01-19T10:21:07.274Z,99264.28
2024-01-19T10:28:10.465Z,99266.47
2024-01-19T10:31:20.726Z,99268.28
2024-01-19T10:34:23.735Z,99252.84
2024-01-19T10:37:25.378Z,99272.41
2024-01-19T10:40:27.000Z,99268.44
2024-01-19T10:44:10.395Z,99254.69
2024-01-19T10:47:14.084Z,99235.50
2024-01-19T10:50:16.750Z,99245.72
2024-01-19T10:53:18.368Z,99230.63
2024-01-19T10:56:20.776Z,99205.81
2024-01-19T10:59:26.722Z,99251.13
2024-01-19T11:02:31.532Z,99239.38
2024-01-19T11:05:34.259Z,99205.00
2024-01-19T11:08:37.028Z,99183.16
2024-01-19T11:11:44.141Z,99199.72
2024-01-19T11:14:50.718Z,99213.03
2024-01-19T11:17:54.644Z,99217.63
2024-01-19T11:20:56.468Z,99202.13
2024-01-19T11:23:58.224Z,99215.69
2024-01-19T11:27:08.191Z,99168.97
2024-01-19T11:30:25.756Z,99186.94
2024-01-19T11:34:02.209Z,99169.41
2024-01-19T11:41:44.708Z,99144.00
2024-01-19T11:48:39.140Z,99164.81
2024-01-19T11:51:48.772Z,99146.09
2024-01-19T11:54:50.440Z,99133.81
2024-01-19T11:57:52.112Z,99131.41
2024-01-19T12:00:54.075Z,99142.34
2024-01-19T12:07:26.896Z,99130.59
2024-01-19T12:10:28.920Z,99104.69
2024-01-19T12:13:31.796Z,99145.31
2024-01-19T12:16:33.740Z,99095.22
2024-01-19T12:19:35.361Z,99089.63
2024-01-19T12:22:38.554Z,99120.66
2024-01-19T12:25:40.279Z,99108.94
2024-01-19T12:28:41.977Z,99134.72
2024-01-19T12:31:43.556Z,99138.97
2024-01-19T12:34:58.678Z,99102.28
2024-01-19T12:38:02.171Z,99132.00
2024-01-19T12:41:04.345Z,99109.31
2024-01-19T12:44:05.819Z,99083.97
2024-01-19T12:47:07.629Z,99114.28
2024-01-19T12:50:41.331Z,99077.84
2024-01-19T12:54:16.636Z,99089.94
2024-01-19T12:57:50.153Z,99057.03
2024-01-19T13:00:51.776Z,99086.97
2024-01-19T13:03:57.240Z,99098.88
2024-01-19T13:06:58.814Z,99109.44
2024-01-19T13:10:34.465Z,99111.63
2024-01-19T13:13:38.727Z,99106.66
2024-01-19T13:16:51.480Z,99081.28
2024-01-19T13:19:53.057Z,99121.41
2024-01-19T13:22:54.735Z,99114.41
2024-01-19T13:29:27.071Z,99116.19
2024-01-19T13:32:28.850Z,99100.66
2024-01-19T13:35:30.579Z,99130.94
2024-01-19T13:38:32.118Z,99144.94
2024-01-19T13:41:35.379Z,99118.66
2024-01-19T13:45:09.478Z,99095.84
2024-01-19T13:51:40.286Z,99140.22
2024-01-19T13:54:48.212Z,99143.81
2024-01-19T13:57:51.103Z,99143.25
2024-01-19T14:00:52.878Z,99134.06
2024-01-19T14:07:24.021Z,99139.47
2024-01-19T14:10:58.680Z,99166.63
2024-01-19T14:14:02.115Z,99141.16
2024-01-19T14:17:36.529Z,99179.41
2024-01-19T14:21:09.977Z,99204.03
2024-01-19T14:24:43.989Z,99194.34
2024-01-19T14:27:45.578Z,99206.09
2024-01-19T14:30:48.752Z,99256.03
2024-01-19T14:33:50.404Z,99278.19
2024-01-19T14:36:52.277Z,99293.91
2024-01-19T14:39:53.948Z,99271.06
2024-01-19T14:42:59.925Z,99287.34
2024-01-19T14:46:04.345Z,99314.19
2024-01-19T14:49:06.250Z,99305.53
2024-01-19T14:52:08.208Z,99315.22
2024-01-19T14:55:10.178Z,99339.78
2024-01-19T15:01:42.525Z,99354.50
2024-01-19T15:04:44.114Z,99356.72
2024-01-19T15:07:45.764Z,99367.03
2024-01-19T15:10:47.542Z,99360.06
2024-01-19T15:13:49.406Z,99389.84
2024-01-19T15:16:58.099Z,99382.31
2024-01-19T15:19:59.735Z,99399.03
2024-01-19T15:23:02.863Z,99399.03
2024-01-19T15:26:04.838Z,99401.25
2024-01-19T15:29:06.515Z,99418.00
2024-01-19T15:32:09.791Z,99409.41
2024-01-19T15:35:11.473Z,99440.34
2024-01-19T15:38:13.848Z,99442.69
2024-01-19T15:41:47.439Z,99445.66
2024-01-19T15:44:49.033Z,99460.06
2024-01-19T15:47:55.617Z,99453.03
2024-01-19T15:50:58.421Z,99477.34
2024-01-19T15:54:06.629Z,99480.53
2024-01-19T15:57:08.633Z,99476.50
2024-01-19T16:00:11.782Z,99494.50
2024-01-19T16:03:14.956Z,99494.00
2024-01-19T16:06:16.789Z,99495.13
2024-01-19T16:12:47.653Z,99504.31
2024-01-19T16:15:49.241Z,99530.06
2024-01-19T16:18:52.168Z,99534.78
2024-01-19T16:21:53.754Z,99528.50
2024-01-19T16:24:55.353Z,99539.72
2024-01-19T16:27:56.888Z,99548.47
2024-01-19T16:30:58.435Z,99545.00
2024-01-19T16:34:01.325Z,99554.91
2024-01-19T16:37:03.451Z,99556.97
2024-01-19T16:40:05.819Z,99545.28
2024-01-19T16:43:08.662Z,99563.16
2024-01-19T16:46:10.176Z,99570.03
2024-01-19T16:49:13.599Z,99575.38
2024-01-19T16:52:15.647Z,99577.91
2024-01-19T16:55:17.468Z,99595.25
2024-01-19T16:58:19.244Z,99588.63
2024-01-19T17:01:21.064Z,99580.97
2024-01-19T17:04:23.987Z,99576.09
2024-01-19T17:07:25.521Z,99585.66
2024-01-19T17:10:27.174Z,99599.56
2024-01-19T17:13:28.771Z,99598.47
2024-01-19T17:16:59.294Z,99608.88
2024-01-19T17:23:31.158Z,99625.50
2024-01-19T17:26:33.059Z,99626.97
2024-01-19T17:29:34.712Z,99639.00
2024-01-19T17:32:40.254Z,99643.81
2024-01-19T17:35:43.245Z,99645.03
2024-01-19T17:38:45.005Z,99650.28
2024-01-19T17:41:46.543Z,99650.28
2024-01-19T17:44:48.521Z,99653.22
2024-01-19T17:48:22.671Z,99662.59
2024-01-19T17:51:25.811Z,99670.59
2024-01-19T17:54:27.368Z,99669.28
2024-01-19T17:58:01.164Z,99688.03
2024-01-19T18:01:02.744Z,99691.44
2024-01-19T18:04:04.493Z,99693.97
2024-01-19T18:07:07.417Z,99696.88
2024-01-19T18:10:10.010Z,99695.88
2024-01-19T18:13:11.771Z,99718.09
2024-01-19T18:16:13.591Z,99718.00
2024-01-19T18:19:15.513Z,99720.53
2024-01-19T18:22:18.585Z,99722.50
2024-01-19T18:25:20.418Z,99728.41
2024-01-19T18:28:22.488Z,99727.06
2024-01-19T18:31:28.782Z,99718.00
2024-01-19T18:34:30.546Z,99726.00
2024-01-19T18:37:33.666Z,99733.13
2024-01-19T18:40:35.430Z,99736.31
2024-01-19T18:43:36.980Z,99729.72
2024-01-19T18:46:44.678Z,99735.75
2024-01-19T18:49:46.372Z,99740.06
2024-01-19T18:52:49.380Z,99739.53
2024-01-19T18:55:52.006Z,99735.94
2024-01-19T18:58:54.168Z,99733.50
2024-01-19T19:01:56.130Z,99738.97
2024-01-19T19:04:57.804Z,99737.72
2024-01-19T19:08:04.683Z,99731.28
2024-01-19T19:11:06.361Z,99741.59
2024-01-19T19:14:08.052Z,99747.78
2024-01-19T19:20:38.912Z,99744.59
2024-01-19T19:23:41.923Z,99751.63
2024-01-19T19:26:44.743Z,99757.09
2024-01-19T19:29:46.304Z,99753.31
2024-01-19T19:32:54.881Z,99765.72
2024-01-19T19:35:56.509Z,99771.59
2024-01-19T19:38:59.479Z,99767.78
2024-01-19T19:42:00.976Z,99785.88
2024-01-19T19:45:02.858Z,99790.28
2024-01-19T19:48:04.960Z,99780.81
2024-01-19T19:54:37.319Z,99801.66
2024-01-19T19:57:38.915Z,99810.09
2024-01-19T20:01:12.894Z,99815.75
2024-01-19T20:04:14.838Z,99811.31
2024-01-19T20:07:16.404Z,99805.41
2024-01-19T20:10:19.644Z,99810.59
2024-01-19T20:13:21.660Z,99808.97
2024-01-19T20:16:23.455Z,99808.53
2024-01-19T20:19:28.463Z,99816.94
2024-01-19T20:22:30.309Z,99814.59
2024-01-19T20:26:05.913Z,99823.63
2024-01-19T20:29:39.454Z,99810.28
2024-01-19T20:33:13.697Z,99813.84
2024-01-19T20:36:15.571Z,99821.00
2024-01-19T20:39:17.461Z,99824.53
2024-01-19T20:42:20.555Z,99825.38
2024-01-19T20:45:54.089Z,99839.75
2024-01-19T20:49:28.404Z,99822.84
2024-01-19T20:52:29.938Z,99844.25
2024-01-19T20:55:31.537Z,99833.47
2024-01-19T21:02:35.880Z,99845.31
2024-01-19T21:06:10.446Z,99845.09
2024-01-19T21:09:12.101Z,99835.53
2024-01-19T21:12:14.489Z,99836.66
2024-01-19T21:15:21.445Z,99835.63
2024-01-19T21:18:59.561Z,99836.75
2024-01-19T21:22:04.208Z,99845.22
2024-01-19T21:25:41.617Z,99847.97
2024-01-19T21:28:43.341Z,99858.34
2024-01-19T21:31:46.376Z,99859.16
2024-01-19T21:38:49.680Z,99865.94
2024-01-19T21:41:51.682Z,99866.50
2024-01-19T21:48:23.692Z,99869.22
2024-01-19T21:55:28.033Z,99872.59
2024-01-19T21:58:29.718Z,99875.31
2024-01-19T22:01:31.310Z,99877.75
2024-01-19T22:08:04.681Z,99886.50
2024-01-19T22:11:06.453Z,99894.00
2024-01-19T22:14:08.182Z,99895.97
2024-01-19T22:17:10.988Z,99895.09
2024-01-19T22:23:43.597Z,99897.09
2024-01-19T22:30:47.693Z,99912.22
2024-01-19T22:33:49.740Z,99915.97
2024-01-19T22:36:52.823Z,99903.75
2024-01-19T22:39:54.466Z,99911.63
2024-01-19T22:42:56.245Z,99906.00
2024-01-19T22:45:57.984Z,99928.25
2024-01-19T22:48:59.965Z,99916.03
2024-01-19T22:52:03.309Z,99919.44
2024-01-19T22:55:06.037Z,99913.59
2024-01-19T22:58:41.895Z,99929.94
2024-01-19T23:01:45.186Z,99923.88
2024-01-19T23:04:46.855Z,99923.69
2024-01-19T23:08:21.942Z,99934.91
2024-01-19T23:11:57.923Z,99931.47
2024-01-19T23:15:02.378Z,99933.25
2024-01-19T23:18:04.577Z,99927.13
2024-01-19T23:21:06.334Z,99932.56
2024-01-19T23:24:12.465Z,99925.91
2024-01-19T23:27:14.249Z,99936.06
2024-01-19T23:30:16.064Z,99938.78
2024-01-19T23:33:19.003Z,99952.41
2024-01-19T23:36:20.636Z,99954.66
2024-01-19T23:39:55.659Z,99960.66
2024-01-19T23:42:58.826Z,99961.88
2024-01-19T23:46:02.287Z,99957.47
2024-01-19T23:49:03.916Z,99973.78
2024-01-19T23:52:06.331Z,99972.97
2024-01-19T23:55:09.331Z,99970.34
2024-01-19T23:58:11.073Z,99962.53
